Startpagina
METAR-TAF:

METAR-TAF

Vliegvelden :

Punta Arenas, Chili

breedte: 53-00S, lengte: 070-51W, hoogte: 37 m

Actueel weer

Dit bericht is 17 minuten geleden gemaakt, om 02:00 UTC
Wind 7 kt uit het noorden
Temperatuur -2°C
Vochtigheid 86%
Druk 1034 hPa
Zicht 10 km of meer
geen wolken onder 1500 m en geen cumulonimbus

METAR: SCCI 190200Z 36007KT CAVOK M02/M04 Q1034 NOSIG

Tijdstip: 22:17 (02:17 UTC)

Verwachting

Dit bericht is 3 uur en het 10 minuten geleden gemaakt, om 23:07 UTC
Verwachting geldig van 19 om 00 UTC tot 20 om 00 UTC
Wind 8 kt uit het noorden
Zicht 10 km of meer
geen wolken onder 1500 m en geen cumulonimbus
Tijdelijke
van 19 om 15 UTC tot 19 om 18 UTC
Geheel bewolkt op 2500 ft
Wijzigt naar
van 19 om 22 UTC tot 19 om 24 UTC
Verspreide wolken op 1200 ft
Geheel bewolkt op 2200 ft

TAF: SCCI 182307Z 1900/2000 36008KT CAVOK TNM05/1911Z TX03/1918Z TEMPO 1915/1918 OVC025 BECMG 1922/1924 SCT012 OVC022

Waarnemingen en weersverwachtingen van meer dan 4000 vliegvelden (METAR en TAF).

De beschikbare stations zijn de gele en rode punten op de kaart.

Ga met uw muis naar het station om de naam te zien.

Klik dan om waarnemingen en weersverwachtingen te zien.

kaart wijzigen: klik op de groene knoppen met een zwart kruis om in te zoomen, op de groene knop met een streepje om uit te zoomen of op de groene pijlen voor aangrenzende kaarten.


METAR-TAF: